createdAt,value
2018-06-15T00:00:55.925Z,74.15
2018-06-15T00:03:24.306Z,73.94
2018-06-15T00:05:53.382Z,73.68
2018-06-15T00:08:21.676Z,74.16
2018-06-15T00:10:50.149Z,75.67
2018-06-15T00:13:18.532Z,75.81
2018-06-15T00:15:46.917Z,75.29
2018-06-15T00:18:15.293Z,74.57
2018-06-15T00:20:43.466Z,73.88
2018-06-15T00:23:11.985Z,74.01
2018-06-15T00:25:40.227Z,73.55
2018-06-15T00:28:08.524Z,74.54
2018-06-15T00:30:36.877Z,74.95
2018-06-15T00:33:05.358Z,73.85
2018-06-15T00:35:33.642Z,75.62
2018-06-15T00:38:01.943Z,75.44
2018-06-15T00:40:30.297Z,75.81
2018-06-15T00:42:58.673Z,74.17
2018-06-15T00:45:26.942Z,74.14
2018-06-15T00:47:55.329Z,73.84
2018-06-15T00:50:23.687Z,73.81
2018-06-15T00:52:51.997Z,73.03
2018-06-15T00:55:20.366Z,72.49
2018-06-15T00:57:49.444Z,74.29
2018-06-15T01:00:18.107Z,74.23
2018-06-15T01:02:46.663Z,73.73
2018-06-15T01:05:14.905Z,73.76
2018-06-15T01:07:43.237Z,74.73
2018-06-15T01:10:11.553Z,74.47
2018-06-15T01:12:39.941Z,74.68
2018-06-15T01:15:08.416Z,73.95
2018-06-15T01:17:37.114Z,73.80
2018-06-15T01:20:05.386Z,72.96
2018-06-15T01:22:33.933Z,72.11
2018-06-15T01:25:02.144Z,71.89
2018-06-15T01:27:30.409Z,72.81
2018-06-15T01:29:58.889Z,74.25
2018-06-15T01:32:27.276Z,74.17
2018-06-15T01:34:55.787Z,74.54
2018-06-15T01:37:24.125Z,75.50
2018-06-15T01:39:52.418Z,77.28
2018-06-15T01:42:20.837Z,78.94
2018-06-15T01:44:49.220Z,78.28
2018-06-15T01:47:17.640Z,77.80
2018-06-15T01:49:46.042Z,77.13
2018-06-15T01:52:14.311Z,77.37
2018-06-15T01:54:42.581Z,77.76
2018-06-15T01:57:10.996Z,79.06
2018-06-15T01:59:39.333Z,78.79
2018-06-15T02:02:07.521Z,78.87
2018-06-15T02:04:35.808Z,77.82
2018-06-15T02:07:04.176Z,76.28
2018-06-15T02:09:32.445Z,75.72
2018-06-15T02:12:00.836Z,75.23
2018-06-15T02:14:29.108Z,75.65
2018-06-15T02:16:57.591Z,76.82
2018-06-15T02:19:25.981Z,77.79
2018-06-15T02:21:54.352Z,77.90
2018-06-15T02:24:23.025Z,76.55
2018-06-15T02:26:51.215Z,76.81
2018-06-15T02:29:19.589Z,76.48
2018-06-15T02:31:48.377Z,76.33
2018-06-15T02:34:16.640Z,75.55
2018-06-15T02:36:45.297Z,75.59
2018-06-15T02:39:13.618Z,77.58
2018-06-15T02:41:43.637Z,77.50
2018-06-15T02:44:11.943Z,76.54
2018-06-15T02:46:40.319Z,76.83
2018-06-15T02:49:08.569Z,76.77
2018-06-15T02:51:36.747Z,76.78
2018-06-15T02:54:05.121Z,77.26
2018-06-15T02:56:33.478Z,76.66
2018-06-15T02:59:01.896Z,75.69
2018-06-15T03:01:30.265Z,75.69
2018-06-15T03:03:58.645Z,75.55
2018-06-15T03:06:27.045Z,76.13
2018-06-15T03:08:55.190Z,77.78
2018-06-15T03:11:23.505Z,77.08
2018-06-15T03:13:52.361Z,76.30
2018-06-15T03:16:20.632Z,75.83
2018-06-15T03:18:48.896Z,74.99
2018-06-15T03:21:17.194Z,75.39
2018-06-15T03:23:45.765Z,75.69
2018-06-15T03:26:13.950Z,74.92
2018-06-15T03:28:42.424Z,74.90
2018-06-15T03:31:10.922Z,75.19
2018-06-15T03:33:39.289Z,75.11
2018-06-15T03:36:07.670Z,75.14
2018-06-15T03:38:36.010Z,75.60
2018-06-15T03:41:04.633Z,75.35
2018-06-15T03:43:32.914Z,75.01
2018-06-15T03:46:01.418Z,74.20
2018-06-15T03:48:29.674Z,73.79
2018-06-15T03:50:57.959Z,74.87
2018-06-15T03:53:26.236Z,75.60
2018-06-15T03:55:54.606Z,75.47
2018-06-15T03:58:22.978Z,74.62
2018-06-15T04:00:51.385Z,75.11
2018-06-15T04:03:19.750Z,74.81
2018-06-15T04:05:48.222Z,75.69
2018-06-15T04:08:16.634Z,75.15
2018-06-15T04:10:45.208Z,74.58
2018-06-15T04:13:14.479Z,74.91
2018-06-15T04:15:42.851Z,75.00
2018-06-15T04:18:11.350Z,75.87
2018-06-15T04:20:39.501Z,75.03
2018-06-15T04:23:07.897Z,75.25
2018-06-15T04:25:36.673Z,74.94
2018-06-15T04:28:04.968Z,73.87
2018-06-15T04:30:33.363Z,74.50
2018-06-15T04:33:01.722Z,75.24
2018-06-15T04:35:29.898Z,75.16
2018-06-15T04:37:58.284Z,75.05
2018-06-15T04:40:26.402Z,74.36
2018-06-15T04:42:54.833Z,73.58
2018-06-15T04:45:23.108Z,73.45
2018-06-15T04:47:51.481Z,73.32
2018-06-15T04:50:19.754Z,73.04
2018-06-15T04:52:48.050Z,74.18
2018-06-15T04:55:16.325Z,74.87
2018-06-15T04:57:44.796Z,75.65
2018-06-15T05:00:13.174Z,74.92
2018-06-15T05:02:41.356Z,74.61
2018-06-15T05:05:09.825Z,73.79
2018-06-15T05:07:38.197Z,74.12
2018-06-15T05:10:06.394Z,73.54
2018-06-15T05:12:34.769Z,74.40
2018-06-15T05:15:03.145Z,74.09
2018-06-15T05:17:31.517Z,73.49
2018-06-15T05:19:59.688Z,74.34
2018-06-15T05:22:28.074Z,73.74
2018-06-15T05:24:56.256Z,73.19
2018-06-15T05:27:24.731Z,73.49
2018-06-15T05:29:53.141Z,71.20
2018-06-15T05:32:21.469Z,71.33
2018-06-15T05:34:49.769Z,71.95
2018-06-15T05:37:18.179Z,72.97
2018-06-15T05:39:46.521Z,72.30
2018-06-15T05:42:14.796Z,72.76
2018-06-15T05:44:43.980Z,73.09
2018-06-15T05:47:12.513Z,72.89
2018-06-15T05:49:40.757Z,71.08
2018-06-15T05:52:09.138Z,71.78
2018-06-15T05:54:37.309Z,71.24
2018-06-15T05:57:05.786Z,70.86
2018-06-15T05:59:34.164Z,71.39
2018-06-15T06:02:02.302Z,70.47
2018-06-15T06:04:30.785Z,70.49
2018-06-15T06:06:59.108Z,70.09
2018-06-15T06:09:27.393Z,70.01
2018-06-15T06:11:55.753Z,70.55
2018-06-15T06:14:24.065Z,70.14
2018-06-15T06:16:52.506Z,67.78
2018-06-15T06:19:20.822Z,67.79
2018-06-15T06:21:49.066Z,68.13
2018-06-15T06:24:17.461Z,67.98
2018-06-15T06:26:45.940Z,67.29
2018-06-15T06:29:14.060Z,67.16
2018-06-15T06:31:42.282Z,68.10
2018-06-15T06:34:10.662Z,67.68
2018-06-15T06:36:38.972Z,66.82
2018-06-15T06:39:09.928Z,67.99
2018-06-15T06:41:38.356Z,68.08
2018-06-15T06:44:06.892Z,65.93
2018-06-15T06:46:35.331Z,63.04
2018-06-15T06:49:03.913Z,62.82
2018-06-15T06:51:32.298Z,64.72
2018-06-15T06:54:01.085Z,64.52
2018-06-15T06:56:29.550Z,65.62
2018-06-15T06:58:57.882Z,66.69
2018-06-15T07:01:26.314Z,66.15
2018-06-15T07:03:54.615Z,65.04
2018-06-15T07:06:23.038Z,62.38
2018-06-15T07:08:51.349Z,63.21
2018-06-15T07:11:19.522Z,62.69
2018-06-15T07:13:47.680Z,61.02
2018-06-15T07:16:15.960Z,60.42
2018-06-15T07:18:44.354Z,60.54
2018-06-15T07:21:12.745Z,61.46
2018-06-15T07:23:41.222Z,62.51
2018-06-15T07:26:09.593Z,60.19
2018-06-15T07:28:37.978Z,59.37
2018-06-15T07:31:06.247Z,58.90
2018-06-15T07:33:34.734Z,59.10
2018-06-15T07:36:03.009Z,57.39
2018-06-15T07:38:31.285Z,58.17
2018-06-15T07:40:59.688Z,58.87
2018-06-15T07:43:28.041Z,58.30
2018-06-15T07:45:56.433Z,57.85
2018-06-15T07:48:24.697Z,56.07
2018-06-15T07:50:52.877Z,56.06
2018-06-15T07:53:21.045Z,55.17
2018-06-15T07:55:49.222Z,53.81
2018-06-15T07:58:17.382Z,54.75
2018-06-15T08:00:45.723Z,55.29
2018-06-15T08:03:14.078Z,54.31
2018-06-15T08:05:42.428Z,54.58
2018-06-15T08:08:10.606Z,55.00
2018-06-15T08:10:38.997Z,53.88
2018-06-15T08:13:07.259Z,53.86
2018-06-15T08:15:35.742Z,53.18
2018-06-15T08:18:04.019Z,53.21
2018-06-15T08:20:32.408Z,52.63
2018-06-15T08:23:00.671Z,53.64
2018-06-15T08:25:29.221Z,53.06
2018-06-15T08:27:57.955Z,52.65
2018-06-15T08:30:26.408Z,52.31
2018-06-15T08:32:54.701Z,52.21
2018-06-15T08:35:22.975Z,52.21
2018-06-15T08:37:51.673Z,52.93
2018-06-15T08:40:20.145Z,51.96
2018-06-15T08:42:48.313Z,52.82
2018-06-15T08:45:16.493Z,53.05
2018-06-15T08:47:44.961Z,53.62
2018-06-15T08:50:13.254Z,53.34
2018-06-15T08:52:41.427Z,51.70
2018-06-15T08:55:09.715Z,53.36
2018-06-15T08:57:38.036Z,51.44
2018-06-15T09:00:06.653Z,51.90
2018-06-15T09:02:35.055Z,50.79
2018-06-15T09:05:03.372Z,53.13
2018-06-15T09:07:31.804Z,52.64
2018-06-15T09:10:00.137Z,51.09
2018-06-15T09:12:28.667Z,51.62
2018-06-15T09:14:56.993Z,51.80
2018-06-15T09:17:25.529Z,52.66
2018-06-15T09:19:53.905Z,52.67
2018-06-15T09:22:22.482Z,52.33
2018-06-15T09:24:51.942Z,51.70
2018-06-15T09:27:20.386Z,51.22
2018-06-15T09:29:49.085Z,51.54
2018-06-15T09:32:18.049Z,51.07
2018-06-15T09:34:46.426Z,50.98
2018-06-15T09:37:14.701Z,50.75
2018-06-15T09:39:43.296Z,51.51
2018-06-15T09:42:11.465Z,51.00
2018-06-15T09:44:39.749Z,51.61
2018-06-15T09:47:22.546Z,48.32
2018-06-15T09:49:50.851Z,50.98
2018-06-15T09:52:19.349Z,47.73
2018-06-15T09:54:47.866Z,48.38
2018-06-15T09:57:16.082Z,47.56
2018-06-15T09:59:44.540Z,48.10
2018-06-15T10:02:13.008Z,48.86
2018-06-15T10:04:41.325Z,48.82
2018-06-15T10:07:09.642Z,49.64
2018-06-15T10:09:37.873Z,46.24
2018-06-15T10:12:06.149Z,49.31
2018-06-15T10:14:34.436Z,45.82
2018-06-15T10:17:02.962Z,47.40
2018-06-15T10:19:31.292Z,43.03
2018-06-15T10:21:59.566Z,43.36
2018-06-15T10:24:27.842Z,42.03
2018-06-15T10:26:56.105Z,47.48
2018-06-15T10:29:24.394Z,47.38
2018-06-15T10:31:52.677Z,47.45
2018-06-15T10:34:21.045Z,48.33
2018-06-15T10:36:49.535Z,48.37
2018-06-15T10:39:17.723Z,44.68
2018-06-15T10:41:45.985Z,45.27
2018-06-15T10:44:14.487Z,48.15
2018-06-15T10:46:42.960Z,43.50
2018-06-15T10:49:11.221Z,44.43
2018-06-15T10:51:39.678Z,43.62
2018-06-15T10:54:08.033Z,46.57
2018-06-15T10:56:37.270Z,44.23
2018-06-15T10:59:05.687Z,46.52
2018-06-15T11:01:34.044Z,44.17
2018-06-15T11:04:02.621Z,46.17
2018-06-15T11:06:31.003Z,44.82
2018-06-15T11:08:59.305Z,44.29
2018-06-15T11:11:27.763Z,44.32
2018-06-15T11:13:56.037Z,44.55
2018-06-15T11:16:24.417Z,44.36
2018-06-15T11:18:53.422Z,43.91
2018-06-15T11:21:21.468Z,46.51
2018-06-15T11:23:49.765Z,42.38
2018-06-15T11:26:18.072Z,44.40
2018-06-15T11:28:46.410Z,47.28
2018-06-15T11:31:14.745Z,46.93
2018-06-15T11:33:42.970Z,47.74
2018-06-15T11:36:11.361Z,47.09
2018-06-15T11:38:39.652Z,44.40
2018-06-15T11:41:07.996Z,46.98
2018-06-15T11:43:36.334Z,44.64
2018-06-15T11:46:04.866Z,46.77
2018-06-15T11:48:33.336Z,45.23
2018-06-15T11:51:01.754Z,43.91
2018-06-15T11:53:29.988Z,47.49
2018-06-15T11:55:58.495Z,43.46
2018-06-15T11:58:27.653Z,46.72
2018-06-15T12:00:55.849Z,43.84
2018-06-15T12:03:25.702Z,46.60
2018-06-15T12:05:54.310Z,43.95
2018-06-15T12:08:22.638Z,45.33
2018-06-15T12:10:50.810Z,43.71
2018-06-15T12:13:18.994Z,43.43
2018-06-15T12:15:47.196Z,42.84
2018-06-15T12:18:15.955Z,44.02
2018-06-15T12:20:44.213Z,43.75
2018-06-15T12:23:12.511Z,44.85
2018-06-15T12:25:40.761Z,44.96
2018-06-15T12:28:08.960Z,45.12
2018-06-15T12:30:37.528Z,44.28
2018-06-15T12:33:06.054Z,44.96
2018-06-15T12:35:34.491Z,45.76
2018-06-15T12:38:02.774Z,46.39
2018-06-15T12:40:31.246Z,45.35
2018-06-15T12:42:59.632Z,44.51
2018-06-15T12:45:28.014Z,43.16
2018-06-15T12:47:56.496Z,42.61
2018-06-15T12:50:25.041Z,43.15
2018-06-15T12:52:53.614Z,42.92
2018-06-15T12:55:21.837Z,43.22
2018-06-15T12:57:50.259Z,43.73
2018-06-15T13:00:18.726Z,43.48
2018-06-15T13:02:47.068Z,43.71
2018-06-15T13:05:15.358Z,44.78
2018-06-15T13:07:43.733Z,44.57
2018-06-15T13:10:12.229Z,45.26
2018-06-15T13:12:40.590Z,45.22
2018-06-15T13:15:08.878Z,45.44
2018-06-15T13:17:37.241Z,46.28
2018-06-15T13:20:05.629Z,46.62
2018-06-15T13:22:33.832Z,47.14
2018-06-15T13:25:02.280Z,47.53
2018-06-15T13:27:30.561Z,48.10
2018-06-15T13:29:59.078Z,48.78
2018-06-15T13:32:27.431Z,50.12
2018-06-15T13:34:55.710Z,50.19
2018-06-15T13:37:23.998Z,50.83
2018-06-15T13:39:52.361Z,51.99
2018-06-15T13:42:27.064Z,52.59
2018-06-15T13:44:55.505Z,53.76
2018-06-15T13:47:23.921Z,54.82
2018-06-15T13:49:52.274Z,56.12
2018-06-15T13:52:20.701Z,56.62
2018-06-15T13:54:49.215Z,57.21
2018-06-15T13:57:17.591Z,57.49
2018-06-15T13:59:45.966Z,57.83
2018-06-15T14:02:14.400Z,57.39
2018-06-15T14:04:42.897Z,57.24
2018-06-15T14:07:11.514Z,57.33
2018-06-15T14:09:39.914Z,56.54
2018-06-15T14:12:08.451Z,56.98
2018-06-15T14:14:37.018Z,56.86
2018-06-15T14:17:05.443Z,56.72
2018-06-15T14:19:33.998Z,56.87
2018-06-15T14:22:02.254Z,56.17
2018-06-15T14:24:30.450Z,56.64
2018-06-15T14:26:58.737Z,56.09
2018-06-15T14:29:27.097Z,56.82
2018-06-15T14:31:55.383Z,56.94
2018-06-15T14:34:23.862Z,55.82
2018-06-15T14:36:52.242Z,55.50
2018-06-15T14:39:20.612Z,55.06
2018-06-15T14:41:49.119Z,54.30
2018-06-15T14:44:17.375Z,54.19
2018-06-15T14:46:45.931Z,54.56
2018-06-15T14:49:14.229Z,54.38
2018-06-15T14:51:42.680Z,54.92
2018-06-15T14:54:11.205Z,54.45
2018-06-15T14:56:39.592Z,53.44
2018-06-15T14:59:08.208Z,53.49
2018-06-15T15:01:36.649Z,52.98
2018-06-15T15:04:05.139Z,53.17
2018-06-15T15:06:33.500Z,52.70
2018-06-15T15:09:01.713Z,53.08
2018-06-15T15:11:30.066Z,52.42
2018-06-15T15:13:58.441Z,53.62
2018-06-15T15:16:26.723Z,53.99
2018-06-15T15:18:54.997Z,54.72
2018-06-15T15:21:23.383Z,54.01
2018-06-15T15:23:51.893Z,53.93
2018-06-15T15:26:20.338Z,54.47
2018-06-15T15:28:48.609Z,55.28
2018-06-15T15:31:16.889Z,55.15
2018-06-15T15:33:45.066Z,55.72
2018-06-15T15:36:13.244Z,54.93
2018-06-15T15:38:42.205Z,54.95
2018-06-15T15:41:10.510Z,55.24
2018-06-15T15:43:38.876Z,54.88
2018-06-15T15:46:07.277Z,56.01
2018-06-15T15:48:35.550Z,54.93
2018-06-15T15:51:03.724Z,52.82
2018-06-15T15:53:32.001Z,52.23
2018-06-15T15:56:00.372Z,52.09
2018-06-15T15:58:28.666Z,51.32
2018-06-15T16:00:57.033Z,53.57
2018-06-15T16:03:25.454Z,50.64
2018-06-15T16:05:53.898Z,53.72
2018-06-15T16:08:22.469Z,51.19
2018-06-15T16:10:50.762Z,52.55
2018-06-15T16:13:19.173Z,52.98
2018-06-15T16:15:47.410Z,53.61
2018-06-15T16:18:15.972Z,53.80
2018-06-15T16:20:44.274Z,54.35
2018-06-15T16:23:12.749Z,54.76
2018-06-15T16:25:41.160Z,54.64
2018-06-15T16:28:10.465Z,54.63
2018-06-15T16:30:38.838Z,54.73
2018-06-15T16:33:07.406Z,55.25
2018-06-15T16:35:35.879Z,55.75
2018-06-15T16:38:04.362Z,55.80
2018-06-15T16:40:32.741Z,56.13
2018-06-15T16:43:01.044Z,56.19
2018-06-15T16:45:29.402Z,56.00
2018-06-15T16:47:57.773Z,56.13
2018-06-15T16:50:26.042Z,57.00
2018-06-15T16:52:54.225Z,57.25
2018-06-15T16:55:22.530Z,57.16
2018-06-15T16:57:51.085Z,56.44
2018-06-15T17:00:19.490Z,56.48
2018-06-15T17:02:47.945Z,56.15
2018-06-15T17:05:16.330Z,55.99
2018-06-15T17:07:45.113Z,56.79
2018-06-15T17:10:13.381Z,56.46
2018-06-15T17:12:41.670Z,56.81
2018-06-15T17:15:10.073Z,57.37
2018-06-15T17:17:38.522Z,57.10
2018-06-15T17:20:06.806Z,58.33
2018-06-15T17:22:35.197Z,57.77
2018-06-15T17:25:03.668Z,57.54
2018-06-15T17:27:32.335Z,56.88
2018-06-15T17:30:00.421Z,57.28
2018-06-15T17:32:28.830Z,57.81
2018-06-15T17:34:57.281Z,58.20
2018-06-15T17:37:25.749Z,57.86
2018-06-15T17:39:54.349Z,58.19
2018-06-15T17:42:23.006Z,58.69
2018-06-15T17:44:51.312Z,57.99
2018-06-15T17:47:20.138Z,58.28
2018-06-15T17:49:48.781Z,58.15
2018-06-15T17:52:17.064Z,58.35
2018-06-15T17:54:45.342Z,58.74
2018-06-15T17:57:13.751Z,57.90
2018-06-15T17:59:42.110Z,58.48
2018-06-15T18:02:10.477Z,58.96
2018-06-15T18:04:38.813Z,59.64
2018-06-15T18:07:07.149Z,59.11
2018-06-15T18:09:35.506Z,59.04
2018-06-15T18:12:03.744Z,59.94
2018-06-15T18:14:32.093Z,60.44
2018-06-15T18:17:00.549Z,60.56
2018-06-15T18:19:29.020Z,61.66
2018-06-15T18:21:57.318Z,61.98
2018-06-15T18:24:25.777Z,62.10
2018-06-15T18:26:54.169Z,62.63
2018-06-15T18:29:22.544Z,62.24
2018-06-15T18:31:50.925Z,61.99
2018-06-15T18:34:19.096Z,61.43
2018-06-15T18:36:47.287Z,62.72
2018-06-15T18:39:15.450Z,62.54
2018-06-15T18:41:44.254Z,63.08
2018-06-15T18:44:12.405Z,64.97
2018-06-15T18:46:40.793Z,64.26
2018-06-15T18:49:08.981Z,63.38
2018-06-15T18:51:37.444Z,63.34
2018-06-15T18:54:05.596Z,63.00
2018-06-15T18:56:34.109Z,62.67
2018-06-15T18:59:02.584Z,63.03
2018-06-15T19:01:30.861Z,63.12
2018-06-15T19:03:59.136Z,63.64
2018-06-15T19:06:27.428Z,63.39
2018-06-15T19:08:55.899Z,63.37
2018-06-15T19:11:24.250Z,63.36
2018-06-15T19:13:53.502Z,63.78
2018-06-15T19:16:21.958Z,63.42
2018-06-15T19:18:50.944Z,63.98
2018-06-15T19:21:19.430Z,63.53
2018-06-15T19:23:47.753Z,64.08
2018-06-15T19:26:16.180Z,63.40
2018-06-15T19:28:44.469Z,63.07
2018-06-15T19:31:12.955Z,62.57
2018-06-15T19:33:41.329Z,62.50
2018-06-15T19:36:09.598Z,62.75
2018-06-15T19:38:37.873Z,62.57
2018-06-15T19:41:06.189Z,64.14
2018-06-15T19:43:34.753Z,64.96
2018-06-15T19:46:03.112Z,65.01
2018-06-15T19:48:31.492Z,65.87
2018-06-15T19:50:59.769Z,66.25
2018-06-15T19:53:28.094Z,66.56
2018-06-15T19:55:56.550Z,66.79
2018-06-15T19:58:24.712Z,66.64
2018-06-15T20:00:53.080Z,66.44
2018-06-15T20:03:21.362Z,66.12
2018-06-15T20:05:49.637Z,66.56
2018-06-15T20:08:17.945Z,66.94
2018-06-15T20:10:46.421Z,67.00
2018-06-15T20:13:14.774Z,67.05
2018-06-15T20:15:43.153Z,67.17
2018-06-15T20:18:11.643Z,66.51
2018-06-15T20:20:40.125Z,67.62
2018-06-15T20:23:08.602Z,67.00
2018-06-15T20:25:37.083Z,66.06
2018-06-15T20:28:05.988Z,67.12
2018-06-15T20:30:34.148Z,67.64
2018-06-15T20:33:02.421Z,67.34
2018-06-15T20:35:30.689Z,66.56
2018-06-15T20:37:59.704Z,67.04
2018-06-15T20:40:28.177Z,67.18
2018-06-15T20:42:56.726Z,67.12
2018-06-15T20:45:25.141Z,66.22
2018-06-15T20:47:53.515Z,66.41
2018-06-15T20:50:21.788Z,68.23
2018-06-15T20:52:50.066Z,68.51
2018-06-15T20:55:18.376Z,68.42
2018-06-15T20:57:47.336Z,68.53
2018-06-15T21:00:15.930Z,68.12
2018-06-15T21:02:44.538Z,67.43
2018-06-15T21:05:12.810Z,67.53
2018-06-15T21:07:41.271Z,68.12
2018-06-15T21:10:09.452Z,68.88
2018-06-15T21:12:37.930Z,69.39
2018-06-15T21:15:06.393Z,68.95
2018-06-15T21:17:34.706Z,69.18
2018-06-15T21:20:03.071Z,68.70
2018-06-15T21:22:31.589Z,68.44
2018-06-15T21:24:59.929Z,69.22
2018-06-15T21:27:28.305Z,68.90
2018-06-15T21:29:56.675Z,69.31
2018-06-15T21:32:24.975Z,69.08
2018-06-15T21:34:53.442Z,69.50
2018-06-15T21:37:21.718Z,69.11
2018-06-15T21:39:50.021Z,70.51
2018-06-15T21:42:18.577Z,70.18
2018-06-15T21:44:46.853Z,70.20
2018-06-15T21:47:15.235Z,70.23
2018-06-15T21:49:43.637Z,70.57
2018-06-15T21:52:11.918Z,70.65
2018-06-15T21:54:40.379Z,71.34
2018-06-15T21:57:08.851Z,71.00
2018-06-15T21:59:37.222Z,70.19
2018-06-15T22:02:05.919Z,69.19
2018-06-15T22:04:34.177Z,68.93
2018-06-15T22:07:02.474Z,69.07
2018-06-15T22:09:30.854Z,69.37
2018-06-15T22:11:59.186Z,70.04
2018-06-15T22:14:27.520Z,68.77
2018-06-15T22:16:56.112Z,68.18
2018-06-15T22:19:24.634Z,68.47
2018-06-15T22:21:53.543Z,69.64
2018-06-15T22:24:22.442Z,70.83
2018-06-15T22:26:50.952Z,70.66
2018-06-15T22:29:19.237Z,71.27
2018-06-15T22:31:47.901Z,71.24
2018-06-15T22:34:16.277Z,70.40
2018-06-15T22:36:44.548Z,70.40
2018-06-15T22:39:14.221Z,70.25
2018-06-15T22:41:42.704Z,70.81
2018-06-15T22:44:11.949Z,70.79
2018-06-15T22:46:41.081Z,70.55
2018-06-15T22:49:10.086Z,71.53
2018-06-15T22:51:38.785Z,71.80
2018-06-15T22:54:07.293Z,72.04
2018-06-15T22:56:35.807Z,71.93
2018-06-15T22:59:04.153Z,72.33
2018-06-15T23:01:32.754Z,73.17
2018-06-15T23:04:01.341Z,72.24
2018-06-15T23:06:29.717Z,71.80
2018-06-15T23:08:58.185Z,71.79
2018-06-15T23:11:26.458Z,71.84
2018-06-15T23:13:54.943Z,72.32
2018-06-15T23:16:23.343Z,71.65
2018-06-15T23:18:51.714Z,71.51
2018-06-15T23:21:20.184Z,73.45
2018-06-15T23:23:48.687Z,72.87
2018-06-15T23:26:17.824Z,73.78
2018-06-15T23:28:46.236Z,73.46
2018-06-15T23:31:14.527Z,72.37
2018-06-15T23:33:43.842Z,71.49
2018-06-15T23:36:13.403Z,71.62
2018-06-15T23:38:41.819Z,72.59
2018-06-15T23:41:10.301Z,72.05
2018-06-15T23:43:38.568Z,72.25
2018-06-15T23:46:07.084Z,72.22
2018-06-15T23:48:35.658Z,71.45
2018-06-15T23:51:04.787Z,72.64
2018-06-15T23:53:34.245Z,73.14
2018-06-15T23:56:02.601Z,73.23
2018-06-15T23:58:30.903Z,73.24
